Time;durP1;ratioP1;P1;durP2;ratioP2;P2;SDS_P1;SDS_P2;PMS_P1;PMS_P2;Temp;Humidity;BMP_temperature;BMP_pressure;BME280_temperature;BME280_humidity;BME280_pressure;Samples;Min_cycle;Max_cycle;Signal;HPM_P1;HPM_P2
2022/06/17 00:01:41;;;;;;;11.63;8.10;;;14.70;99.90;;;;;;5055467;28;20075;-69
2022/06/17 00:04:07;;;;;;;12.32;8.40;;;14.70;99.90;;;;;;5048811;28;20494;-69
2022/06/17 00:06:38;;;;;;;10.65;7.80;;;14.80;99.90;;;;;;5045685;28;20053;-70
2022/06/17 00:09:05;;;;;;;13.15;7.45;;;14.80;99.90;;;;;;5052237;28;20049;-69
2022/06/17 00:11:34;;;;;;;11.07;7.80;;;14.70;99.90;;;;;;5051642;28;20414;-70
2022/06/17 00:14:00;;;;;;;12.05;7.10;;;14.80;99.90;;;;;;5037347;28;20046;-69
2022/06/17 00:16:26;;;;;;;12.02;7.70;;;14.70;99.90;;;;;;5050020;28;20044;-70
2022/06/17 00:18:53;;;;;;;11.85;7.53;;;14.70;99.90;;;;;;5044335;28;20367;-70
2022/06/17 00:21:26;;;;;;;15.90;8.10;;;14.70;99.90;;;;;;5049126;28;20123;-70
2022/06/17 00:23:52;;;;;;;15.05;7.78;;;14.70;99.90;;;;;;5033437;28;20175;-70
2022/06/17 00:26:18;;;;;;;17.52;8.82;;;14.70;99.90;;;;;;5039685;28;20123;-70
2022/06/17 00:28:43;;;;;;;11.30;7.72;;;14.70;99.90;;;;;;5044297;28;20060;-70
2022/06/17 00:31:09;;;;;;;13.30;8.00;;;14.70;99.90;;;;;;5045141;28;20079;-70
2022/06/17 00:33:35;;;;;;;13.90;8.43;;;14.70;99.90;;;;;;5052745;28;20037;-70
2022/06/17 00:36:01;;;;;;;11.45;7.65;;;14.70;99.90;;;;;;5046836;28;20040;-70
2022/06/17 00:38:31;;;;;;;9.85;7.97;;;14.70;99.90;;;;;;5050606;28;20159;-70
2022/06/17 00:41:02;;;;;;;10.98;8.07;;;14.70;99.90;;;;;;5040007;28;20049;-70
2022/06/17 00:43:29;;;;;;;10.80;7.82;;;14.70;99.90;;;;;;5032199;28;20056;-69
2022/06/17 00:46:28;;;;;;;14.73;8.95;;;14.60;99.90;;;;;;5046556;28;20704;-69
2022/06/17 00:49:05;;;;;;;16.33;7.95;;;14.70;99.90;;;;;;5041027;28;20045;-69
2022/06/17 00:51:40;;;;;;;10.95;8.13;;;14.60;99.90;;;;;;5050135;28;20094;-69
2022/06/17 00:54:18;;;;;;;10.65;8.05;;;14.60;99.90;;;;;;5050356;28;20407;-70
2022/06/17 00:56:44;;;;;;;12.40;8.35;;;14.60;99.90;;;;;;5052474;28;20044;-70
2022/06/17 00:59:15;;;;;;;10.32;8.27;;;14.60;99.90;;;;;;5050255;28;20098;-70
2022/06/17 01:01:47;;;;;;;12.02;8.13;;;14.60;99.90;;;;;;5052240;28;20041;-70
2022/06/17 01:04:17;;;;;;;11.18;7.88;;;14.60;99.90;;;;;;5052921;28;20052;-70
2022/06/17 01:06:49;;;;;;;12.52;8.45;;;14.60;99.90;;;;;;5046206;28;20052;-71
2022/06/17 01:12:10;;;;;;;11.55;8.38;;;14.50;99.90;;;;;;5047637;28;20103;-70
2022/06/17 01:14:38;;;;;;;14.93;8.98;;;14.50;99.90;;;;;;5055423;28;20088;-70
2022/06/17 01:17:04;;;;;;;12.07;8.63;;;14.60;99.90;;;;;;5037381;28;20128;-70
2022/06/17 01:19:43;;;;;;;12.95;8.50;;;14.50;99.90;;;;;;5043961;28;20072;-70
2022/06/17 01:22:21;;;;;;;14.30;9.40;;;14.50;99.90;;;;;;5049589;28;20395;-70
2022/06/17 01:24:49;;;;;;;15.43;8.38;;;14.50;99.90;;;;;;5049985;28;20045;-69
2022/06/17 01:27:22;;;;;;;23.83;9.57;;;14.50;99.90;;;;;;5041131;28;20504;-69
2022/06/17 01:29:49;;;;;;;12.52;8.90;;;14.50;99.90;;;;;;5047999;28;20135;-69
2022/06/17 01:32:16;;;;;;;14.80;10.00;;;14.50;99.90;;;;;;5049923;28;20136;-69
2022/06/17 01:34:42;;;;;;;10.45;8.45;;;14.50;99.90;;;;;;5038499;28;20552;-70
2022/06/17 01:37:10;;;;;;;15.20;8.73;;;14.50;99.90;;;;;;5044363;28;20041;-69
2022/06/17 01:39:35;;;;;;;13.20;9.07;;;14.50;99.90;;;;;;5033877;28;20037;-70
2022/06/17 01:42:02;;;;;;;13.88;9.10;;;14.50;99.90;;;;;;5058283;28;20041;-69
2022/06/17 01:44:36;;;;;;;14.52;8.82;;;14.50;99.90;;;;;;5042673;28;20132;-69
2022/06/17 01:47:11;;;;;;;13.05;8.73;;;14.50;99.90;;;;;;5047300;28;20041;-69
2022/06/17 01:49:48;;;;;;;12.18;8.48;;;14.40;99.90;;;;;;5035297;28;20041;-69
2022/06/17 01:52:19;;;;;;;14.13;9.35;;;14.40;99.90;;;;;;5044870;28;20037;-69
2022/06/17 01:54:56;;;;;;;10.95;8.77;;;14.30;99.90;;;;;;5034685;28;20065;-69
2022/06/17 01:57:27;;;;;;;12.27;7.93;;;14.40;99.90;;;;;;5045093;28;20130;-70
2022/06/17 01:59:59;;;;;;;11.98;8.05;;;14.40;99.90;;;;;;5049229;28;20112;-69
2022/06/17 02:02:27;;;;;;;12.38;9.05;;;14.30;99.90;;;;;;5050698;28;20111;-69
2022/06/17 02:04:58;;;;;;;11.52;8.20;;;14.30;99.90;;;;;;5038958;28;20072;-69
2022/06/17 02:07:40;;;;;;;13.75;8.80;;;14.30;99.90;;;;;;5044487;28;20033;-69
2022/06/17 02:10:06;;;;;;;13.10;8.30;;;14.30;99.90;;;;;;5039418;28;20490;-70
2022/06/17 02:12:33;;;;;;;13.30;9.15;;;14.30;99.90;;;;;;5043067;28;20120;-70
2022/06/17 02:15:00;;;;;;;14.25;8.30;;;14.30;99.90;;;;;;5033722;28;20403;-70
2022/06/17 02:17:32;;;;;;;13.88;8.43;;;14.20;99.90;;;;;;5045542;28;20049;-70
2022/06/17 02:19:58;;;;;;;11.75;7.90;;;14.20;99.90;;;;;;5033665;28;20114;-70
2022/06/17 02:22:29;;;;;;;10.27;7.82;;;14.20;99.90;;;;;;5047478;28;20479;-70
2022/06/17 02:24:58;;;;;;;12.25;8.10;;;14.20;99.90;;;;;;5047258;28;20447;-70
2022/06/17 02:27:26;;;;;;;10.55;8.50;;;14.20;99.90;;;;;;5033806;28;20499;-70
2022/06/17 02:29:52;;;;;;;10.48;8.07;;;14.10;99.90;;;;;;5049181;28;20047;-70
2022/06/17 02:32:19;;;;;;;10.85;8.32;;;14.10;99.90;;;;;;5042626;28;20466;-70
2022/06/17 02:34:53;;;;;;;11.63;8.75;;;14.10;99.90;;;;;;5043170;28;20084;-70
2022/06/17 02:37:19;;;;;;;14.70;8.68;;;14.00;99.90;;;;;;5031779;28;20522;-70
2022/06/17 02:39:49;;;;;;;12.88;8.52;;;14.00;99.90;;;;;;5044657;28;20041;-70
2022/06/17 02:42:35;;;;;;;14.27;8.45;;;14.00;99.90;;;;;;5051645;28;20093;-70
2022/06/17 02:45:12;;;;;;;10.23;7.53;;;13.90;99.90;;;;;;5051181;28;20372;-69
2022/06/17 02:47:40;;;;;;;13.45;8.85;;;13.90;99.90;;;;;;5050698;28;20132;-69
2022/06/17 02:50:06;;;;;;;16.08;8.20;;;13.90;99.90;;;;;;5042954;28;20123;-70
2022/06/17 02:52:38;;;;;;;11.85;7.70;;;13.90;99.90;;;;;;5053069;28;20049;-70
2022/06/17 02:55:47;;;;;;;10.57;7.80;;;13.90;99.90;;;;;;5039842;28;20043;-69
2022/06/17 02:58:22;;;;;;;12.63;8.02;;;13.90;99.90;;;;;;5001762;28;20133;-69
2022/06/17 03:00:50;;;;;;;12.95;8.60;;;13.90;99.90;;;;;;5009249;28;20496;-69
2022/06/17 03:03:19;;;;;;;16.33;8.48;;;13.90;99.90;;;;;;5035209;28;20064;-70
2022/06/17 03:05:46;;;;;;;10.98;8.90;;;13.90;99.90;;;;;;5033595;28;20107;-70
2022/06/17 03:08:25;;;;;;;20.52;10.38;;;13.80;99.90;;;;;;5047401;28;20037;-71
2022/06/17 03:10:54;;;;;;;22.00;10.93;;;13.90;99.90;;;;;;5048503;28;20037;-69
2022/06/17 03:13:36;;;;;;;17.80;11.45;;;13.90;99.90;;;;;;5053969;28;20402;-69
2022/06/17 03:16:06;;;;;;;16.70;11.20;;;13.90;99.90;;;;;;5052783;28;20076;-69
2022/06/17 03:18:32;;;;;;;16.17;12.20;;;13.90;99.90;;;;;;5040356;28;20049;-69
2022/06/17 03:21:00;;;;;;;16.35;11.00;;;13.90;99.90;;;;;;5033729;28;20045;-69
2022/06/17 03:23:28;;;;;;;;;;;14.00;99.90;;;;;;5038751;28;20043;-69
2022/06/17 03:26:09;;;;;;;15.70;9.90;;;14.00;99.90;;;;;;5052523;28;19921;-69
2022/06/17 03:28:45;;;;;;;15.07;8.98;;;14.10;99.90;;;;;;5041753;28;20120;-68
2022/06/17 03:31:29;;;;;;;13.80;9.15;;;14.10;99.90;;;;;;5045067;28;20091;-68
2022/06/17 03:34:05;;;;;;;14.13;9.43;;;14.20;99.90;;;;;;5054935;28;20449;-68
2022/06/17 03:36:48;;;;;;;13.48;9.60;;;14.20;99.90;;;;;;5054339;28;20384;-68
2022/06/17 03:39:32;;;;;;;12.85;8.30;;;14.30;99.90;;;;;;5050487;28;20516;-68
2022/06/17 03:42:25;;;;;;;11.88;8.25;;;14.30;99.90;;;;;;5043184;28;20128;-68
2022/06/17 03:44:59;;;;;;;13.80;9.15;;;14.40;99.90;;;;;;5036300;28;20034;-70
2022/06/17 03:47:42;;;;;;;15.15;8.45;;;14.40;99.90;;;;;;5060483;28;20155;-68
2022/06/17 03:50:18;;;;;;;13.68;8.68;;;14.50;99.90;;;;;;5034244;28;20128;-69
2022/06/17 03:52:57;;;;;;;15.75;8.48;;;14.50;99.90;;;;;;5049856;28;20401;-69
2022/06/17 03:55:23;;;;;;;10.55;7.70;;;14.40;99.90;;;;;;5035639;28;20041;-69
2022/06/17 03:57:53;;;;;;;16.55;7.95;;;14.50;99.90;;;;;;5053032;28;20040;-69
2022/06/17 04:00:37;;;;;;;14.93;8.18;;;14.50;99.90;;;;;;5038537;28;20043;-68
2022/06/17 04:03:06;;;;;;;14.32;7.03;;;14.50;99.90;;;;;;5035605;28;20060;-68
2022/06/17 04:05:32;;;;;;;13.50;7.57;;;14.50;99.90;;;;;;5036570;28;20247;-70
2022/06/17 04:07:58;;;;;;;11.02;7.57;;;14.50;99.90;;;;;;5045915;28;20056;-70
2022/06/17 04:10:27;;;;;;;15.65;7.28;;;14.60;99.90;;;;;;5047741;28;20045;-69
2022/06/17 04:12:53;;;;;;;11.93;6.45;;;14.70;99.90;;;;;;5052145;28;20494;-70
2022/06/17 04:15:31;;;;;;;11.52;6.40;;;14.80;99.90;;;;;;5051004;28;20048;-69
2022/06/17 04:17:57;;;;;;;10.65;6.32;;;14.80;99.90;;;;;;5056119;28;20131;-70
2022/06/17 04:20:35;;;;;;;8.85;5.18;;;14.90;99.90;;;;;;5051418;28;20077;-69
2022/06/17 04:23:06;;;;;;;7.18;5.03;;;15.00;99.90;;;;;;5044878;28;20052;-68
2022/06/17 04:25:32;;;;;;;8.85;5.03;;;15.10;99.90;;;;;;5043546;28;20055;-69
2022/06/17 04:28:03;;;;;;;9.23;4.88;;;15.10;99.90;;;;;;5052447;28;20037;-69
2022/06/17 04:30:32;;;;;;;7.75;4.70;;;15.20;99.90;;;;;;5053517;28;20055;-70
2022/06/17 04:33:10;;;;;;;9.00;4.47;;;15.20;99.90;;;;;;5053146;28;20106;-70
2022/06/17 04:35:36;;;;;;;9.98;4.50;;;15.30;99.90;;;;;;5036050;28;20049;-69
2022/06/17 04:38:02;;;;;;;10.23;4.30;;;15.30;99.90;;;;;;5047133;28;20041;-68
2022/06/17 04:40:37;;;;;;;7.63;4.53;;;15.40;99.90;;;;;;5047280;28;20037;-68
2022/06/17 04:43:11;;;;;;;10.25;4.30;;;15.50;99.90;;;;;;5031874;28;20053;-69
2022/06/17 04:45:36;;;;;;;5.97;4.20;;;15.50;99.90;;;;;;5031917;28;20057;-68
2022/06/17 04:48:02;;;;;;;15.75;4.50;;;15.60;99.90;;;;;;5033171;28;20046;-69
2022/06/17 04:50:30;;;;;;;7.93;4.28;;;15.60;99.90;;;;;;5048319;28;20114;-69
2022/06/17 04:52:57;;;;;;;11.15;4.68;;;15.70;99.90;;;;;;5033195;28;20052;-70
2022/06/17 04:55:38;;;;;;;8.80;4.90;;;15.70;99.90;;;;;;5041845;28;20490;-68
2022/06/17 04:58:04;;;;;;;9.52;5.15;;;15.80;99.90;;;;;;5050578;28;20045;-68
2022/06/17 05:00:30;;;;;;;13.07;4.53;;;15.80;99.90;;;;;;5047214;28;20124;-69
2022/06/17 05:02:57;;;;;;;10.63;4.97;;;15.80;99.90;;;;;;5049617;28;20053;-70
2022/06/17 05:05:35;;;;;;;9.87;4.50;;;15.80;99.90;;;;;;5043357;28;20059;-69
2022/06/17 05:08:07;;;;;;;10.73;4.97;;;15.80;99.90;;;;;;5040508;28;20040;-69
2022/06/17 05:10:37;;;;;;;7.15;4.25;;;15.90;99.90;;;;;;5039521;28;20098;-69
2022/06/17 05:13:12;;;;;;;9.43;4.25;;;15.90;99.90;;;;;;5045424;28;20041;-69
2022/06/17 05:15:38;;;;;;;7.95;4.43;;;15.90;99.90;;;;;;5021547;28;21029;-69
2022/06/17 05:18:04;;;;;;;9.20;5.05;;;15.90;99.90;;;;;;5030269;28;20045;-69
2022/06/17 05:20:30;;;;;;;11.57;4.32;;;15.90;99.90;;;;;;5050187;28;20380;-69
2022/06/17 05:23:02;;;;;;;5.60;3.95;;;15.90;99.90;;;;;;5042705;28;20044;-69
2022/06/17 05:25:30;;;;;;;11.93;4.70;;;16.00;99.90;;;;;;5043571;28;20183;-70
2022/06/17 05:27:56;;;;;;;8.13;5.03;;;16.00;99.90;;;;;;5040399;28;20083;-69
2022/06/17 05:30:22;;;;;;;7.85;4.45;;;16.00;99.90;;;;;;5038994;28;20127;-70
2022/06/17 05:32:53;;;;;;;10.55;4.75;;;16.00;99.90;;;;;;5034427;28;20049;-70
2022/06/17 05:35:20;;;;;;;8.88;4.32;;;16.00;99.90;;;;;;5058755;28;20048;-70
2022/06/17 05:37:46;;;;;;;12.18;4.90;;;16.10;99.90;;;;;;5037563;28;20079;-71
2022/06/17 05:40:12;;;;;;;7.25;4.45;;;15.90;99.90;;;;;;5045185;28;20120;-70
2022/06/17 05:42:40;;;;;;;14.50;5.18;;;16.10;99.90;;;;;;5043957;28;20041;-70
2022/06/17 05:45:10;;;;;;;11.45;5.22;;;16.20;99.90;;;;;;5042264;28;20038;-70
2022/06/17 05:47:36;;;;;;;12.25;5.22;;;16.20;99.90;;;;;;5040226;28;20037;-71
2022/06/17 05:50:01;;;;;;;8.55;4.47;;;16.30;99.90;;;;;;5041155;28;20102;-70
2022/06/17 05:52:27;;;;;;;12.70;4.65;;;16.30;99.90;;;;;;5046588;28;20041;-71
2022/06/17 05:55:02;;;;;;;10.32;4.35;;;16.40;99.90;;;;;;5045434;28;20102;-72
2022/06/17 05:57:27;;;;;;;10.60;5.22;;;16.40;99.90;;;;;;5054927;28;20059;-72
2022/06/17 05:59:53;;;;;;;12.45;4.65;;;16.50;99.90;;;;;;5058640;28;20394;-71
2022/06/17 06:02:19;;;;;;;12.27;5.07;;;16.60;99.90;;;;;;5043536;28;20045;-70
2022/06/17 06:04:44;;;;;;;9.02;5.03;;;16.60;99.90;;;;;;5061430;28;20048;-71
2022/06/17 06:07:10;;;;;;;8.60;4.75;;;16.70;99.90;;;;;;5052091;28;20040;-70
2022/06/17 06:09:35;;;;;;;11.50;4.90;;;16.70;99.90;;;;;;5044487;28;20046;-69
2022/06/17 06:12:01;;;;;;;8.13;4.78;;;16.80;99.90;;;;;;5046491;28;20418;-70
2022/06/17 06:14:27;;;;;;;8.25;5.43;;;16.80;99.90;;;;;;5048516;28;20041;-71
2022/06/17 06:16:52;;;;;;;8.70;4.72;;;16.80;99.90;;;;;;5037707;28;20087;-71
2022/06/17 06:19:18;;;;;;;7.32;4.47;;;16.90;99.90;;;;;;5047624;28;20041;-70
2022/06/17 06:21:44;;;;;;;11.32;4.90;;;16.90;99.90;;;;;;5039596;28;20052;-70
2022/06/17 06:24:09;;;;;;;11.73;4.97;;;17.00;99.90;;;;;;5049156;28;20045;-69
2022/06/17 06:26:35;;;;;;;8.50;4.80;;;17.00;99.90;;;;;;5045798;28;20045;-71
2022/06/17 06:29:01;;;;;;;9.10;4.82;;;17.00;99.90;;;;;;5039194;28;20033;-69
2022/06/17 06:31:36;;;;;;;9.57;4.82;;;17.10;99.90;;;;;;5055266;28;20039;-70
2022/06/17 06:34:02;;;;;;;11.18;5.05;;;17.10;99.90;;;;;;5054988;28;20155;-69
2022/06/17 06:36:29;;;;;;;9.70;4.95;;;17.20;99.90;;;;;;5040467;28;20041;-71
2022/06/17 06:38:54;;;;;;;8.57;4.90;;;17.20;99.90;;;;;;5047216;28;20080;-70
2022/06/17 06:41:21;;;;;;;10.13;5.40;;;17.30;99.90;;;;;;5047392;28;20546;-69
2022/06/17 06:43:47;;;;;;;8.27;4.75;;;17.40;99.90;;;;;;5048061;28;20037;-70
2022/06/17 06:46:17;;;;;;;12.13;5.20;;;17.40;99.90;;;;;;5046002;28;20037;-70
2022/06/17 06:48:44;;;;;;;11.48;5.53;;;17.50;99.90;;;;;;5048392;28;20050;-70
2022/06/17 06:51:09;;;;;;;9.10;4.82;;;17.70;99.90;;;;;;5050028;28;20039;-70
2022/06/17 06:53:35;;;;;;;12.00;5.20;;;17.80;99.90;;;;;;5053794;28;20144;-69
2022/06/17 06:56:03;;;;;;;8.55;5.00;;;17.90;99.90;;;;;;5044256;28;20041;-70
2022/06/17 06:58:28;;;;;;;13.80;5.05;;;18.00;99.90;;;;;;5046033;28;20495;-69
2022/06/17 07:00:56;;;;;;;7.18;4.55;;;18.10;99.90;;;;;;5045018;28;20044;-69
2022/06/17 07:03:22;;;;;;;11.70;5.03;;;18.20;99.90;;;;;;5041798;28;20061;-70
2022/06/17 07:05:50;;;;;;;10.80;4.82;;;18.40;99.90;;;;;;5045790;28;20076;-69
2022/06/17 07:08:17;;;;;;;;;;;18.50;99.90;;;;;;5049599;28;20060;-69
2022/06/17 07:10:44;;;;;;;8.60;4.20;;;18.60;99.90;;;;;;5043408;28;20397;-68
2022/06/17 07:13:10;;;;;;;13.57;4.87;;;18.70;99.90;;;;;;5027047;28;20076;-69
2022/06/17 07:15:38;;;;;;;10.57;5.20;;;18.80;99.90;;;;;;5046420;28;20790;-68
2022/06/17 07:18:15;;;;;;;12.45;4.70;;;18.80;99.90;;;;;;5046986;28;20502;-70
2022/06/17 07:20:43;;;;;;;13.48;4.63;;;18.80;99.90;;;;;;5038274;28;20050;-69
2022/06/17 07:23:16;;;;;;;7.88;4.85;;;18.90;99.90;;;;;;5047830;28;20510;-69
2022/06/17 07:25:43;;;;;;;7.72;4.82;;;18.90;99.90;;;;;;5024389;28;20427;-68
2022/06/17 07:28:15;;;;;;;8.43;4.47;;;18.90;99.90;;;;;;5053039;28;20056;-70
2022/06/17 07:30:44;;;;;;;8.63;4.75;;;19.00;99.90;;;;;;5053190;28;20045;-69
2022/06/17 07:33:09;;;;;;;9.95;4.95;;;19.10;99.90;;;;;;5054538;28;20041;-70
2022/06/17 07:35:36;;;;;;;9.52;4.43;;;19.20;99.90;;;;;;5041753;28;20393;-71
2022/06/17 07:40:48;;;;;;;7.72;4.60;;;19.40;99.90;;;;;;5052361;28;20084;-69
2022/06/17 07:43:18;;;;;;;15.88;5.00;;;19.50;99.90;;;;;;5054276;28;20040;-71
2022/06/17 07:45:44;;;;;;;8.27;4.43;;;19.60;99.90;;;;;;5040941;28;20498;-70
2022/06/17 07:48:13;;;;;;;9.50;4.60;;;19.80;99.90;;;;;;5049415;28;20045;-71
2022/06/17 07:50:41;;;;;;;8.27;4.20;;;19.90;99.90;;;;;;5044494;28;20048;-71
2022/06/17 07:53:08;;;;;;;9.73;4.10;;;20.10;99.90;;;;;;5043757;28;20045;-70
2022/06/17 07:55:34;;;;;;;14.00;4.53;;;20.30;99.90;;;;;;5036752;28;20167;-71
2022/06/17 07:58:00;;;;;;;7.40;3.90;;;20.50;99.90;;;;;;5057091;28;20497;-70
2022/06/17 08:00:29;;;;;;;7.35;4.45;;;20.70;99.90;;;;;;5071027;28;20139;-70
2022/06/17 08:02:55;;;;;;;9.95;4.72;;;20.80;99.90;;;;;;5059360;28;20061;-70
2022/06/17 08:05:22;;;;;;;7.82;3.92;;;20.90;99.90;;;;;;5048136;28;20419;-69
2022/06/17 08:07:53;;;;;;;7.28;4.20;;;21.00;99.90;;;;;;5033439;28;20124;-69
2022/06/17 08:10:22;;;;;;;9.65;4.18;;;21.10;99.90;;;;;;5049239;28;20510;-70
2022/06/17 08:12:47;;;;;;;7.90;4.57;;;21.20;99.90;;;;;;5046800;28;20045;-71
2022/06/17 08:15:13;;;;;;;8.85;4.15;;;21.30;99.90;;;;;;5052223;28;20060;-70
2022/06/17 08:17:41;;;;;;;7.45;4.55;;;21.30;99.90;;;;;;5043192;28;20037;-69
2022/06/17 08:20:18;;;;;;;16.10;4.38;;;21.30;99.90;;;;;;5034032;28;20053;-69
2022/06/17 08:22:44;;;;;;;13.52;5.45;;;21.30;99.90;;;;;;5033769;28;20038;-69
2022/06/17 08:25:10;;;;;;;14.18;4.45;;;21.20;99.90;;;;;;5036035;28;20052;-69
2022/06/17 08:27:48;;;;;;;8.13;4.35;;;21.30;99.90;;;;;;5044042;28;20049;-69
2022/06/17 08:30:16;;;;;;;10.00;4.80;;;21.40;99.90;;;;;;5040968;28;20059;-70
2022/06/17 08:32:45;;;;;;;;;;;21.50;99.90;;;;;;5048961;28;20037;-69
2022/06/17 08:35:25;;;;;;;15.43;4.55;;;21.60;99.90;;;;;;5048733;28;20050;-70
2022/06/17 08:37:55;;;;;;;14.07;4.70;;;21.80;99.90;;;;;;5048543;28;20098;-69
2022/06/17 08:40:43;;;;;;;9.55;4.55;;;21.90;99.90;;;;;;5033481;28;20096;-68
2022/06/17 08:43:53;;;;;;;8.98;5.05;;;22.00;99.40;;;;;;5049495;28;20190;-69
2022/06/17 08:46:18;;;;;;;11.88;5.38;;;22.10;99.80;;;;;;5029831;28;20132;-69
2022/06/17 08:49:05;;;;;;;12.90;4.72;;;22.20;99.50;;;;;;5029607;28;20217;-69
2022/06/17 08:51:46;;;;;;;8.82;5.03;;;22.20;98.90;;;;;;5028379;28;20500;-68
2022/06/17 08:54:29;;;;;;;11.10;4.28;;;22.20;98.70;;;;;;5031545;28;20491;-68
2022/06/17 08:57:13;;;;;;;10.38;4.55;;;22.20;98.60;;;;;;5034678;28;20472;-69
2022/06/17 09:00:06;;;;;;;14.45;5.70;;;22.20;98.90;;;;;;5051647;28;20048;-69
2022/06/17 09:02:47;;;;;;;15.45;5.75;;;22.10;98.80;;;;;;5052659;28;20190;-69
2022/06/17 09:05:18;;;;;;;12.80;5.32;;;22.00;99.20;;;;;;5038778;28;20508;-69
2022/06/17 09:08:05;;;;;;;10.23;4.22;;;22.00;99.00;;;;;;5045356;28;20046;-69
2022/06/17 09:10:50;;;;;;;7.80;4.82;;;22.00;99.20;;;;;;5044802;28;20368;-69
2022/06/17 09:13:32;;;;;;;8.38;5.07;;;22.00;98.70;;;;;;5045257;28;20045;-69
2022/06/17 09:16:13;;;;;;;13.32;5.18;;;22.10;98.90;;;;;;5033780;28;20041;-70
2022/06/17 09:18:50;;;;;;;12.68;5.35;;;22.10;98.60;;;;;;5047651;28;20045;-68
2022/06/17 09:21:22;;;;;;;11.10;5.70;;;22.20;98.80;;;;;;5047195;28;20410;-69
2022/06/17 09:23:50;;;;;;;12.02;4.80;;;22.20;99.10;;;;;;5041369;28;20053;-69
2022/06/17 09:26:28;;;;;;;8.60;4.97;;;22.20;98.90;;;;;;5054052;28;20075;-70
2022/06/17 09:29:40;;;;;;;15.23;5.28;;;22.30;99.20;;;;;;5040720;28;20045;-69
2022/06/17 09:32:13;;;;;;;11.80;5.35;;;22.30;99.40;;;;;;5031244;28;20064;-69
2022/06/17 09:34:54;;;;;;;10.60;5.18;;;22.30;98.90;;;;;;5031813;28;20107;-69
2022/06/17 09:37:40;;;;;;;7.45;4.70;;;22.40;98.90;;;;;;5033678;28;20038;-70
2022/06/17 09:40:30;;;;;;;10.23;4.80;;;22.50;98.90;;;;;;5046658;28;20079;-69
2022/06/17 09:43:18;;;;;;;7.05;4.63;;;22.80;99.40;;;;;;5041107;28;20060;-69
2022/06/17 09:45:50;;;;;;;11.13;4.82;;;23.30;98.50;;;;;;5052045;28;20397;-69
2022/06/17 09:48:29;;;;;;;14.57;5.03;;;23.80;97.60;;;;;;5052016;28;20049;-68
2022/06/17 09:51:02;;;;;;;8.85;4.28;;;24.10;97.10;;;;;;5044432;28;20097;-69
2022/06/17 09:53:43;;;;;;;12.00;4.75;;;24.40;96.50;;;;;;5052991;28;20050;-67
2022/06/17 09:56:28;;;;;;;8.20;4.30;;;24.40;95.30;;;;;;5050211;28;20052;-67
2022/06/17 09:59:12;;;;;;;6.28;4.18;;;24.30;96.10;;;;;;5047152;28;20047;-68
2022/06/17 10:01:41;;;;;;;10.85;4.57;;;24.20;96.20;;;;;;5030680;28;20073;-69
2022/06/17 10:04:11;;;;;;;7.53;4.57;;;24.10;95.90;;;;;;5034418;28;20084;-71
2022/06/17 10:07:21;;;;;;;10.35;4.53;;;24.00;95.70;;;;;;5057991;28;20478;-70
2022/06/17 10:09:52;;;;;;;12.93;4.35;;;24.00;95.50;;;;;;5034936;28;20575;-71
2022/06/17 10:12:30;;;;;;;7.10;3.67;;;23.90;96.30;;;;;;5047811;28;20044;-70
2022/06/17 10:15:22;;;;;;;8.48;4.35;;;24.00;95.80;;;;;;5050810;28;20517;-71
2022/06/17 10:21:16;;;;;;;9.85;3.92;;;23.80;95.60;;;;;;5044067;28;20049;-69
2022/06/17 10:24:08;;;;;;;9.18;4.03;;;23.80;95.70;;;;;;5043853;28;20513;-71
2022/06/17 10:27:03;;;;;;;6.53;3.70;;;23.70;95.80;;;;;;5054659;28;20099;-70
2022/06/17 10:29:53;;;;;;;13.55;4.10;;;23.60;94.40;;;;;;5061023;28;20056;-72
2022/06/17 10:32:20;;;;;;;8.32;3.80;;;23.50;95.10;;;;;;5042616;28;20076;-70
2022/06/17 10:34:54;;;;;;;8.77;3.83;;;23.40;95.30;;;;;;5046359;28;20483;-72
2022/06/17 10:37:20;;;;;;;9.95;3.88;;;23.40;95.00;;;;;;5047101;28;20072;-74
2022/06/17 10:39:47;;;;;;;8.98;3.80;;;23.40;95.00;;;;;;5047071;28;20118;-71
2022/06/17 10:42:15;;;;;;;12.50;3.87;;;23.50;95.50;;;;;;5045316;28;20044;-71
2022/06/17 10:44:44;;;;;;;15.40;4.07;;;23.50;95.50;;;;;;5043666;28;20056;-72
2022/06/17 10:47:29;;;;;;;8.07;3.58;;;23.60;95.60;;;;;;5048583;28;20491;-72
2022/06/17 10:49:59;;;;;;;10.32;3.13;;;23.70;95.40;;;;;;5047635;28;20045;-72
2022/06/17 10:52:35;;;;;;;7.15;3.25;;;23.90;95.70;;;;;;5049632;28;20045;-71
2022/06/17 10:55:03;;;;;;;11.55;3.78;;;24.00;96.10;;;;;;5045718;28;20048;-72
2022/06/17 10:57:31;;;;;;;7.97;3.63;;;24.20;95.60;;;;;;5045364;28;20041;-70
2022/06/17 10:59:57;;;;;;;6.47;3.40;;;24.40;95.10;;;;;;5046293;28;20048;-70
2022/06/17 11:02:27;;;;;;;6.90;3.97;;;24.40;95.10;;;;;;5043362;28;20415;-71
2022/06/17 11:04:54;;;;;;;5.15;3.00;;;24.50;94.90;;;;;;5049370;28;20049;-70
2022/06/17 11:07:52;;;;;;;8.73;3.22;;;24.60;95.70;;;;;;5046037;28;20086;-72
2022/06/17 11:10:26;;;;;;;9.48;3.97;;;24.80;95.00;;;;;;5043599;28;20049;-71
2022/06/17 11:13:04;;;;;;;9.57;3.80;;;24.90;94.30;;;;;;5049912;28;20040;-70
2022/06/17 11:15:36;;;;;;;11.02;3.85;;;25.10;94.40;;;;;;5048310;28;20057;-71
2022/06/17 11:18:08;;;;;;;8.07;4.18;;;25.20;94.90;;;;;;5047504;28;20405;-72
2022/06/17 11:20:37;;;;;;;15.30;3.85;;;25.40;93.60;;;;;;5045378;28;20125;-70
2022/06/17 11:23:18;;;;;;;7.90;3.95;;;25.70;94.30;;;;;;5045163;28;20029;-69
2022/06/17 11:25:46;;;;;;;7.50;3.85;;;25.80;93.80;;;;;;5055654;28;20034;-69
2022/06/17 11:28:25;;;;;;;9.20;4.55;;;26.00;93.30;;;;;;5039494;28;20491;-68
2022/06/17 11:31:00;;;;;;;9.23;4.63;;;26.10;91.40;;;;;;5051401;28;20048;-68
2022/06/17 11:33:30;;;;;;;11.02;4.47;;;26.20;91.60;;;;;;5040928;28;20626;-69
2022/06/17 11:36:16;;;;;;;10.30;4.50;;;26.10;91.60;;;;;;5039165;28;20541;-69
2022/06/17 11:38:42;;;;;;;9.18;3.65;;;26.20;92.80;;;;;;5053464;28;20044;-69
2022/06/17 11:41:10;;;;;;;9.77;4.35;;;26.30;93.40;;;;;;5051160;28;20052;-68
2022/06/17 11:43:42;;;;;;;8.70;4.47;;;26.60;93.40;;;;;;5046885;28;20041;-67
2022/06/17 11:46:18;;;;;;;10.30;4.22;;;26.80;92.40;;;;;;5046151;28;20045;-69
2022/06/17 11:48:56;;;;;;;9.00;5.03;;;27.00;91.00;;;;;;5041536;28;20076;-68
2022/06/17 11:51:28;;;;;;;7.78;3.45;;;27.10;90.30;;;;;;5037855;28;20633;-69
2022/06/17 11:53:58;;;;;;;9.38;4.05;;;27.30;91.00;;;;;;5058180;28;20060;-69
2022/06/17 11:56:31;;;;;;;8.07;3.97;;;27.50;90.70;;;;;;5045094;28;20097;-70
2022/06/17 11:59:14;;;;;;;10.23;3.72;;;27.70;90.30;;;;;;5036095;28;20037;-68
2022/06/17 12:01:47;;;;;;;9.13;4.20;;;27.80;88.00;;;;;;5038987;28;20491;-70
2022/06/17 12:04:39;;;;;;;12.40;3.97;;;27.70;88.00;;;;;;5045463;28;20049;-68
2022/06/17 12:07:38;;;;;;;8.80;4.68;;;27.70;87.40;;;;;;5040505;28;20048;-69
2022/06/17 12:10:40;;;;;;;6.50;3.90;;;27.70;87.90;;;;;;5043297;28;20402;-68
2022/06/17 12:13:47;;;;;;;9.82;5.10;;;27.80;86.10;;;;;;5059347;28;20060;-68
2022/06/17 12:16:19;;;;;;;10.95;4.05;;;27.80;83.70;;;;;;5045203;28;20439;-68
2022/06/17 12:18:48;;;;;;;6.28;3.50;;;27.80;86.60;;;;;;5041995;28;20561;-68
2022/06/17 12:21:25;;;;;;;6.43;3.70;;;28.00;86.50;;;;;;5044732;28;20433;-68
2022/06/17 12:24:13;;;;;;;10.98;3.75;;;28.10;85.70;;;;;;5042806;28;21797;-69
2022/06/17 12:26:55;;;;;;;8.32;3.30;;;28.40;84.40;;;;;;5043915;28;20052;-68
2022/06/17 12:29:36;;;;;;;7.80;3.78;;;28.50;82.60;;;;;;5041565;28;20060;-67
2022/06/17 12:32:21;;;;;;;8.75;3.42;;;28.60;80.90;;;;;;5038517;28;20072;-71
2022/06/17 12:34:52;;;;;;;5.63;3.30;;;28.80;81.80;;;;;;5033596;28;20102;-69
2022/06/17 12:37:29;;;;;;;9.98;3.55;;;29.00;81.50;;;;;;5045200;28;20041;-70
2022/06/17 12:40:00;;;;;;;8.68;3.28;;;29.10;80.20;;;;;;5046429;28;20128;-68
2022/06/17 12:42:32;;;;;;;7.65;3.15;;;29.20;78.10;;;;;;5032086;28;20049;-69
2022/06/17 12:45:01;;;;;;;6.10;3.08;;;29.10;78.80;;;;;;5045887;28;20053;-70
2022/06/17 12:47:46;;;;;;;10.00;2.90;;;29.30;77.00;;;;;;5050136;28;20096;-68
2022/06/17 12:53:47;;;;;;;12.63;3.38;;;29.40;76.10;;;;;;5039655;28;20045;-69
2022/06/17 12:56:49;;;;;;;6.47;3.03;;;29.20;75.00;;;;;;5048244;28;20457;-71
2022/06/17 13:00:02;;;;;;;5.57;3.38;;;29.00;75.50;;;;;;5039858;28;20044;-69
2022/06/17 13:02:34;;;;;;;7.20;3.75;;;28.60;74.10;;;;;;5026707;28;20126;-68
2022/06/17 13:05:34;;;;;;;11.68;3.88;;;28.30;75.40;;;;;;5042228;28;20159;-69
2022/06/17 13:08:21;;;;;;;9.60;3.72;;;28.10;74.70;;;;;;5040934;28;20045;-70
2022/06/17 13:11:11;;;;;;;9.43;4.50;;;27.80;75.80;;;;;;5041439;28;20473;-72
2022/06/17 13:14:18;;;;;;;9.23;3.55;;;27.60;76.10;;;;;;5045845;28;20422;-69
2022/06/17 13:16:48;;;;;;;10.98;4.28;;;27.30;77.00;;;;;;5041977;28;20183;-68
2022/06/17 13:19:31;;;;;;;12.25;3.85;;;27.20;78.30;;;;;;5039134;28;20044;-68
2022/06/17 13:22:12;;;;;;;9.57;4.00;;;27.00;79.70;;;;;;5038998;28;20458;-68
2022/06/17 13:24:58;;;;;;;7.63;3.35;;;26.80;78.40;;;;;;5038654;28;20083;-69